Flight Track Log - Related Links

Times and Time Zones

All times are in EST time to prevent confusion due to time zone crossing. See the EJA922 flight status page for this flight to view local times or setup timezone preferences in your user account.

Time Position Orientation Groundspeed Altitude Reporting Facility
EST Latitude Longitude Course Direction KTS MPH feet Rate Location/Type
Sat 05:56:39 PM 29.6372 -95.2864 68° East 171 197 600  Level Houston Center
Sat 05:57:53 PM 29.6489 -95.2539 68° East 233 268 4,600 2,966 Climbing Houston Center
Sat 05:58:06 PM 29.6572 -95.2561 347° North 236 272 4,900 3,836 Climbing Houston Center
Sat 05:58:54 PM 29.7186 -95.2814 340° North 261 300 8,500 3,871 Climbing Houston Center
Sat 05:59:08 PM 29.7253 -95.2817 358° North 249 287 8,900 2,921 Climbing Houston Center
Sat 06:00:10 PM 29.8114 -95.3211 338° Northwest 286 329 12,200 2,758 Climbing Houston Center
Sat 06:01:12 PM 29.8906 -95.3567 339° North 339 390 14,600 2,129 Climbing Houston Center
Sat 06:02:14 PM 30.0019 -95.4075 338° Northwest 357 411 16,600 1,597 Climbing Houston Center
Sat 06:03:16 PM 30.0975 -95.4514 338° Northwest 366 421 17,900 1,355 Climbing Houston Center
Sat 06:04:18 PM 30.1936 -95.4944 339° North 370 426 19,400 1,429 Climbing Houston Center
Sat 06:05:22 PM 30.2928 -95.5397 338° Northwest 378 435 20,900 774 Climbing Houston Center
Sat 06:06:22 PM 30.3919 -95.5844 339° North 382 440 21,000 49 Climbing Houston Center
Sat 06:07:24 PM 30.4992 -95.6358 338° Northwest 413 475 21,000 629 Level Houston Center
Sat 06:08:26 PM 30.6050 -95.6886 337° Northwest 414 476 22,300 1,597 Climbing Houston Center
Sat 06:09:28 PM 30.7197 -95.7511 335° Northwest 405 466 24,300 1,742 Climbing Houston Center
Sat 06:10:30 PM 30.8208 -95.8042 336° Northwest 398 458 25,900 1,415 Climbing Houston Center
Sat 06:11:31 PM 30.9228 -95.8600 335° Northwest 402 463 27,200 1,122 Climbing Houston Center
Sat 06:12:33 PM 31.0281 -95.9161 335° Northwest 412 474 28,200 1,113 Climbing Houston Center
Sat 06:13:35 PM 31.1603 -95.9825 337° Northwest 425 489 29,500 1,113 Climbing Houston Center
Sat 06:14:37 PM 31.2794 -96.0286 342° North 442 509 30,500 968 Climbing Houston Center
Sat 06:15:39 PM 31.4006 -96.0747 342° North 452 520 31,500 968 Climbing Houston Center
Sat 06:16:41 PM 31.5267 -96.1244 341° North 461 531 32,500 931 Climbing Houston Center
Sat 06:17:35 PM 31.6294 -96.1639 342° North 467 537 33,300 776 Climbing Fort Worth Center
Sat 06:18:37 PM 31.7572 -96.2131 342° North 475 547 34,000 339 Climbing Fort Worth Center
Sat 06:19:39 PM 31.8939 -96.2675 341° North 484 557 34,000 -48 Level Fort Worth Center
Sat 06:20:41 PM 32.0225 -96.3178 342° North 488 562 33,900 -48 Descending Fort Worth Center
Sat 06:21:43 PM 32.1778 -96.3739 343° North 487 560 33,900  Level Fort Worth Center
Sat 06:22:45 PM 32.3072 -96.4206 343° North 488 562 33,900  Level Fort Worth Center
Sat 06:23:47 PM 32.4350 -96.4681 343° North 484 557 33,900 48 Level Fort Worth Center
Sat 06:24:49 PM 32.5644 -96.5150 343° North 488 562 34,000 48 Climbing Fort Worth Center
Sat 06:25:51 PM 32.6922 -96.5625 343° North 484 557 34,000 -48 Level Fort Worth Center
Sat 06:26:53 PM 32.8211 -96.6092 343° North 486 559 33,900 -48 Descending Fort Worth Center
Sat 06:27:55 PM 32.9733 -96.6669 342° North 483 556 33,900 48 Level Fort Worth Center
Sat 06:28:57 PM 33.1014 -96.7142 343° North 485 558 34,000  Climbing Fort Worth Center
Sat 06:29:59 PM 33.2286 -96.7611 343° North 484 557 33,900 -288 Descending Fort Worth Center
Sat 06:31:02 PM 33.3547 -96.8100 342° North 480 552 33,400 -1,296 Descending Fort Worth Center
Sat 06:32:04 PM 33.5039 -96.8647 343° North 471 542 31,200 -1,935 Descending Fort Worth Center
Sat 06:33:06 PM 33.6286 -96.9106 343° North 472 543 29,400 -1,694 Descending Fort Worth Center
Sat 06:34:08 PM 33.7517 -96.9583 342° North 468 539 27,700 -1,645 Descending Fort Worth Center
Sat 06:35:10 PM 33.8694 -97.0047 342° North 452 520 26,000 -1,597 Descending Fort Worth Center
Sat 06:36:12 PM 33.9853 -97.0481 343° North 439 505 24,400 -1,597 Descending Fort Worth Center
Sat 06:37:14 PM 34.1106 -97.0969 342° North 436 502 22,700 -1,597 Descending Fort Worth Center
Sat 06:38:16 PM 34.2228 -97.1361 344° North 422 486 21,100 -1,548 Descending Fort Worth Center
Sat 06:39:18 PM 34.3325 -97.1772 343° North 414 476 19,500 -1,512 Descending Fort Worth Center
Sat 06:40:19 PM 34.4403 -97.2219 341° North 411 473 18,000 -1,610 Descending Fort Worth Center
Sat 06:41:21 PM 34.5664 -97.2703 342° North 399 459 16,200 -1,597 Descending Fort Worth Center
Sat 06:42:23 PM 34.6683 -97.3072 343° North 387 445 14,700 -1,462 Descending Fort Worth Center
Sat 06:42:39 PM 34.7044 -97.3200 344° North 382 440 14,300 -1,358 Descending Fort Worth Center
Sat 06:43:16 PM 34.7600 -97.3436 341° North 388 447 13,500 -1,304 Descending Fort Worth Center
Sat 06:43:25 PM 34.7714 -97.3472 345° North 387 445 13,300 -1,700 Descending Fort Worth Center
Sat 06:44:16 PM 34.8678 -97.3811 344° North 375 432 11,800 -1,548 Descending Fort Worth Center
Sat 06:44:27 PM 34.8719 -97.3842 329° Northwest 381 438 11,700 -1,082 Descending Fort Worth Center
Sat 06:45:17 PM 34.9561 -97.4144 344° North 318 366 10,700 -968 Descending Fort Worth Center
Sat 06:45:29 PM 34.9594 -97.4156 345° North 339 390 10,700 -837 Level Fort Worth Center
Sat 06:46:00 PM 35.0064 -97.4314 345° North 259 298 10,100 -1,548 Descending Fort Worth Center
Sat 06:46:31 PM 35.0450 -97.4450 344° North 277 319 9,100 -2,000 Descending Fort Worth Center
Sat 06:47:00 PM 35.0750 -97.4581 340° North 249 287 8,100 -1,935 Descending Fort Worth Center
Sat 06:47:33 PM 35.1139 -97.4706 345° North 261 300 7,100 -1,595 Descending Fort Worth Center
Sat 06:48:19 PM 35.1672 -97.4908 343° North 263 303 6,000 -1,065 Descending Fort Worth Center
Sat 06:48:35 PM 35.1831 -97.4972 342° North 261 300 6,000  Level Fort Worth Center
Sat 06:49:20 PM 35.2339 -97.5203 340° North 256 295 6,000  Level Fort Worth Center
Sat 06:49:37 PM 35.2550 -97.5281 343° North 257 296 6,000  Level Fort Worth Center
Sat 06:50:20 PM 35.3003 -97.5475 341° North 251 289 6,000  Level Fort Worth Center
Sat 06:50:38 PM 35.3200 -97.5553 342° North 249 287 6,000 -197 Level Fort Worth Center
Sat 06:51:21 PM 35.3722 -97.5683 348° North 248 285 5,800 -484 Descending Fort Worth Center
Sat 06:51:40 PM 35.3919 -97.5725 350° North 247 284 5,500 -1,500 Descending Fort Worth Center
Sat 06:52:21 PM 35.4386 -97.5775 355° North 248 285 4,300 -1,452 Descending Fort Worth Center
Sat 06:52:42 PM 35.4606 -97.5803 354° North 251 289 4,000 -873 Descending Fort Worth Center
Sat 06:53:16 PM 35.5028 -97.5847 355° North 249 287 3,500 -968 Descending Fort Worth Center
Sat 06:53:44 PM 35.5314 -97.5869 356° North 238 274 3,000 -787 Descending Fort Worth Center
Sat 06:54:17 PM 35.5647 -97.5919 353° North 223 257 2,700 -484 Descending Fort Worth Center
Sat 06:54:46 PM 35.5853 -97.6019 338° Northwest 203 234 2,500 -455 Descending Fort Worth Center
Sat 06:55:23 PM 35.5864 -97.6347 272° West 131 151 2,200 -581 Descending Fort Worth Center
Sat 06:55:48 PM 35.5758 -97.6442 216° Southwest 140 161 1,900 -689 Descending Fort Worth Center
Sat 06:56:24 PM 35.5539 -97.6453 182° South 134 154 1,500 -590 Descending Fort Worth Center
Sat 06:56:49 PM 35.5425 -97.6456 181° South 133 153 1,300 -480 Descending Fort Worth Center

Login

Don't have an account? Register now (free) for customized features, flight alerts, and more!